sensor_id;sensor_type;location;lat;lon;timestamp;P1;durP1;ratioP1;P2;durP2;ratioP2
20365;SDS011;10341;49.894;8.822;2023-06-22T00:02:04;8.90;;;7.15;;
20365;SDS011;10341;49.894;8.822;2023-06-22T00:07:23;7.88;;;6.18;;
20365;SDS011;10341;49.894;8.822;2023-06-22T00:12:42;8.45;;;6.13;;
20365;SDS011;10341;49.894;8.822;2023-06-22T00:18:01;7.33;;;5.90;;
20365;SDS011;10341;49.894;8.822;2023-06-22T00:23:21;8.80;;;6.20;;
20365;SDS011;10341;49.894;8.822;2023-06-22T00:28:42;8.90;;;6.35;;
20365;SDS011;10341;49.894;8.822;2023-06-22T00:34:01;6.88;;;6.05;;
20365;SDS011;10341;49.894;8.822;2023-06-22T00:39:20;8.77;;;6.53;;
20365;SDS011;10341;49.894;8.822;2023-06-22T00:44:39;12.38;;;7.50;;
20365;SDS011;10341;49.894;8.822;2023-06-22T00:49:59;10.35;;;7.18;;
20365;SDS011;10341;49.894;8.822;2023-06-22T00:55:19;11.15;;;7.22;;
20365;SDS011;10341;49.894;8.822;2023-06-22T01:00:41;9.18;;;6.45;;
20365;SDS011;10341;49.894;8.822;2023-06-22T01:06:02;9.75;;;7.18;;
20365;SDS011;10341;49.894;8.822;2023-06-22T01:11:41;9.77;;;7.15;;
20365;SDS011;10341;49.894;8.822;2023-06-22T01:17:04;8.73;;;6.70;;
20365;SDS011;10341;49.894;8.822;2023-06-22T01:22:30;10.68;;;6.85;;
20365;SDS011;10341;49.894;8.822;2023-06-22T01:33:35;8.27;;;6.65;;
20365;SDS011;10341;49.894;8.822;2023-06-22T01:38:58;9.55;;;6.88;;
20365;SDS011;10341;49.894;8.822;2023-06-22T01:44:18;10.15;;;7.28;;
20365;SDS011;10341;49.894;8.822;2023-06-22T01:49:38;8.93;;;7.30;;
20365;SDS011;10341;49.894;8.822;2023-06-22T01:54:57;10.48;;;8.25;;
20365;SDS011;10341;49.894;8.822;2023-06-22T02:00:18;11.07;;;8.10;;
20365;SDS011;10341;49.894;8.822;2023-06-22T02:11:23;9.32;;;7.25;;
20365;SDS011;10341;49.894;8.822;2023-06-22T02:16:44;10.02;;;7.45;;
20365;SDS011;10341;49.894;8.822;2023-06-22T02:22:04;10.55;;;7.65;;
20365;SDS011;10341;49.894;8.822;2023-06-22T02:27:24;9.23;;;7.13;;
20365;SDS011;10341;49.894;8.822;2023-06-22T02:32:43;13.35;;;8.75;;
20365;SDS011;10341;49.894;8.822;2023-06-22T02:38:03;10.10;;;7.35;;
20365;SDS011;10341;49.894;8.822;2023-06-22T02:43:23;10.35;;;8.00;;
20365;SDS011;10341;49.894;8.822;2023-06-22T02:48:42;11.07;;;8.83;;
20365;SDS011;10341;49.894;8.822;2023-06-22T02:54:01;10.05;;;7.63;;
20365;SDS011;10341;49.894;8.822;2023-06-22T02:59:22;14.52;;;8.55;;
20365;SDS011;10341;49.894;8.822;2023-06-22T03:04:45;11.75;;;8.60;;
20365;SDS011;10341;49.894;8.822;2023-06-22T03:10:08;13.77;;;8.05;;
20365;SDS011;10341;49.894;8.822;2023-06-22T03:15:28;9.30;;;6.57;;
20365;SDS011;10341;49.894;8.822;2023-06-22T03:20:48;11.63;;;9.00;;
20365;SDS011;10341;49.894;8.822;2023-06-22T03:26:08;9.52;;;7.35;;
20365;SDS011;10341;49.894;8.822;2023-06-22T03:31:28;14.52;;;9.65;;
20365;SDS011;10341;49.894;8.822;2023-06-22T03:36:48;10.82;;;7.97;;
20365;SDS011;10341;49.894;8.822;2023-06-22T03:42:07;12.85;;;9.15;;
20365;SDS011;10341;49.894;8.822;2023-06-22T03:47:27;10.90;;;7.15;;
20365;SDS011;10341;49.894;8.822;2023-06-22T03:52:46;8.55;;;6.65;;
20365;SDS011;10341;49.894;8.822;2023-06-22T03:58:06;8.63;;;6.90;;
20365;SDS011;10341;49.894;8.822;2023-06-22T04:03:25;8.90;;;7.00;;
20365;SDS011;10341;49.894;8.822;2023-06-22T04:08:45;10.60;;;7.40;;
20365;SDS011;10341;49.894;8.822;2023-06-22T04:14:09;9.98;;;7.15;;
20365;SDS011;10341;49.894;8.822;2023-06-22T04:19:28;13.40;;;10.07;;
20365;SDS011;10341;49.894;8.822;2023-06-22T04:24:47;13.40;;;10.68;;
20365;SDS011;10341;49.894;8.822;2023-06-22T04:30:07;10.45;;;8.52;;
20365;SDS011;10341;49.894;8.822;2023-06-22T04:35:27;12.05;;;9.18;;
20365;SDS011;10341;49.894;8.822;2023-06-22T04:40:47;12.35;;;8.88;;
20365;SDS011;10341;49.894;8.822;2023-06-22T04:46:06;12.27;;;9.25;;
20365;SDS011;10341;49.894;8.822;2023-06-22T04:51:25;15.40;;;10.60;;
20365;SDS011;10341;49.894;8.822;2023-06-22T04:56:49;10.60;;;8.38;;
20365;SDS011;10341;49.894;8.822;2023-06-22T05:02:15;9.90;;;7.78;;
20365;SDS011;10341;49.894;8.822;2023-06-22T05:07:34;10.35;;;7.13;;
20365;SDS011;10341;49.894;8.822;2023-06-22T05:12:54;11.00;;;8.30;;
20365;SDS011;10341;49.894;8.822;2023-06-22T05:18:13;12.15;;;9.20;;
20365;SDS011;10341;49.894;8.822;2023-06-22T05:23:33;13.05;;;9.32;;
20365;SDS011;10341;49.894;8.822;2023-06-22T05:28:52;14.23;;;9.47;;
20365;SDS011;10341;49.894;8.822;2023-06-22T05:34:12;12.07;;;8.32;;
20365;SDS011;10341;49.894;8.822;2023-06-22T05:39:31;10.52;;;7.93;;
20365;SDS011;10341;49.894;8.822;2023-06-22T05:44:51;10.23;;;7.63;;
20365;SDS011;10341;49.894;8.822;2023-06-22T05:50:12;10.38;;;8.23;;
20365;SDS011;10341;49.894;8.822;2023-06-22T05:55:31;9.70;;;7.60;;
20365;SDS011;10341;49.894;8.822;2023-06-22T06:00:51;8.88;;;7.00;;
20365;SDS011;10341;49.894;8.822;2023-06-22T06:06:11;9.57;;;7.70;;
20365;SDS011;10341;49.894;8.822;2023-06-22T06:16:50;10.60;;;7.22;;
20365;SDS011;10341;49.894;8.822;2023-06-22T06:22:09;10.60;;;7.93;;
20365;SDS011;10341;49.894;8.822;2023-06-22T06:27:29;8.37;;;6.77;;
20365;SDS011;10341;49.894;8.822;2023-06-22T06:32:49;8.77;;;6.97;;
20365;SDS011;10341;49.894;8.822;2023-06-22T06:38:09;9.77;;;7.28;;
20365;SDS011;10341;49.894;8.822;2023-06-22T06:43:29;8.38;;;6.43;;
20365;SDS011;10341;49.894;8.822;2023-06-22T06:48:48;9.60;;;7.33;;
20365;SDS011;10341;49.894;8.822;2023-06-22T06:54:07;9.32;;;6.88;;
20365;SDS011;10341;49.894;8.822;2023-06-22T06:59:27;8.68;;;6.90;;
20365;SDS011;10341;49.894;8.822;2023-06-22T07:04:47;9.20;;;6.93;;
20365;SDS011;10341;49.894;8.822;2023-06-22T07:10:07;8.32;;;6.40;;
20365;SDS011;10341;49.894;8.822;2023-06-22T07:15:26;6.88;;;5.72;;
20365;SDS011;10341;49.894;8.822;2023-06-22T07:20:46;7.80;;;6.47;;
20365;SDS011;10341;49.894;8.822;2023-06-22T07:26:06;9.32;;;7.07;;
20365;SDS011;10341;49.894;8.822;2023-06-22T07:31:26;7.95;;;6.18;;
20365;SDS011;10341;49.894;8.822;2023-06-22T07:36:45;7.68;;;6.45;;
20365;SDS011;10341;49.894;8.822;2023-06-22T07:42:05;9.82;;;7.18;;
20365;SDS011;10341;49.894;8.822;2023-06-22T07:47:24;8.98;;;5.95;;
20365;SDS011;10341;49.894;8.822;2023-06-22T07:52:46;7.10;;;6.18;;
20365;SDS011;10341;49.894;8.822;2023-06-22T07:58:06;10.05;;;6.30;;
20365;SDS011;10341;49.894;8.822;2023-06-22T08:03:26;8.45;;;5.82;;
20365;SDS011;10341;49.894;8.822;2023-06-22T08:08:45;8.27;;;5.68;;
20365;SDS011;10341;49.894;8.822;2023-06-22T08:14:06;6.82;;;5.47;;
20365;SDS011;10341;49.894;8.822;2023-06-22T08:19:26;7.45;;;5.30;;
20365;SDS011;10341;49.894;8.822;2023-06-22T08:24:45;6.28;;;5.45;;
20365;SDS011;10341;49.894;8.822;2023-06-22T08:30:06;7.82;;;5.78;;
20365;SDS011;10341;49.894;8.822;2023-06-22T08:35:26;7.15;;;5.32;;
20365;SDS011;10341;49.894;8.822;2023-06-22T08:40:45;8.68;;;5.47;;
20365;SDS011;10341;49.894;8.822;2023-06-22T08:46:05;5.90;;;5.35;;
20365;SDS011;10341;49.894;8.822;2023-06-22T08:51:24;5.68;;;4.97;;
20365;SDS011;10341;49.894;8.822;2023-06-22T08:56:43;5.90;;;5.30;;
20365;SDS011;10341;49.894;8.822;2023-06-22T09:02:02;6.63;;;5.68;;
20365;SDS011;10341;49.894;8.822;2023-06-22T09:07:22;6.85;;;5.40;;
20365;SDS011;10341;49.894;8.822;2023-06-22T09:12:42;5.63;;;4.90;;
20365;SDS011;10341;49.894;8.822;2023-06-22T09:18:02;5.07;;;4.57;;
20365;SDS011;10341;49.894;8.822;2023-06-22T09:23:21;6.03;;;5.18;;
20365;SDS011;10341;49.894;8.822;2023-06-22T09:28:41;5.72;;;4.80;;
20365;SDS011;10341;49.894;8.822;2023-06-22T09:34:00;6.43;;;4.88;;
20365;SDS011;10341;49.894;8.822;2023-06-22T09:39:19;5.95;;;4.75;;
20365;SDS011;10341;49.894;8.822;2023-06-22T09:44:39;6.53;;;5.20;;
20365;SDS011;10341;49.894;8.822;2023-06-22T09:49:58;6.00;;;5.10;;
20365;SDS011;10341;49.894;8.822;2023-06-22T09:55:18;5.68;;;4.85;;
20365;SDS011;10341;49.894;8.822;2023-06-22T10:00:37;5.80;;;5.20;;
20365;SDS011;10341;49.894;8.822;2023-06-22T10:05:57;7.10;;;5.07;;
20365;SDS011;10341;49.894;8.822;2023-06-22T10:11:16;7.93;;;4.93;;
20365;SDS011;10341;49.894;8.822;2023-06-22T10:16:36;6.68;;;5.20;;
20365;SDS011;10341;49.894;8.822;2023-06-22T10:21:55;7.90;;;5.80;;
20365;SDS011;10341;49.894;8.822;2023-06-22T10:27:14;6.22;;;5.10;;
20365;SDS011;10341;49.894;8.822;2023-06-22T10:32:33;6.88;;;5.28;;
20365;SDS011;10341;49.894;8.822;2023-06-22T10:37:53;5.93;;;5.25;;
20365;SDS011;10341;49.894;8.822;2023-06-22T10:43:13;5.55;;;4.35;;
20365;SDS011;10341;49.894;8.822;2023-06-22T10:48:32;6.28;;;5.10;;
20365;SDS011;10341;49.894;8.822;2023-06-22T10:53:52;6.97;;;5.25;;
20365;SDS011;10341;49.894;8.822;2023-06-22T10:59:11;6.63;;;5.00;;
20365;SDS011;10341;49.894;8.822;2023-06-22T11:04:30;7.00;;;5.13;;
20365;SDS011;10341;49.894;8.822;2023-06-22T11:09:49;7.95;;;5.60;;
20365;SDS011;10341;49.894;8.822;2023-06-22T11:15:08;7.85;;;5.25;;
20365;SDS011;10341;49.894;8.822;2023-06-22T11:20:27;9.77;;;5.43;;
20365;SDS011;10341;49.894;8.822;2023-06-22T11:25:46;6.90;;;5.22;;
20365;SDS011;10341;49.894;8.822;2023-06-22T11:31:05;8.25;;;5.18;;
20365;SDS011;10341;49.894;8.822;2023-06-22T11:36:26;8.15;;;5.35;;
20365;SDS011;10341;49.894;8.822;2023-06-22T11:41:45;7.00;;;5.63;;
20365;SDS011;10341;49.894;8.822;2023-06-22T11:47:05;7.85;;;5.40;;
20365;SDS011;10341;49.894;8.822;2023-06-22T11:52:24;7.85;;;4.85;;
20365;SDS011;10341;49.894;8.822;2023-06-22T11:57:53;7.63;;;5.38;;
20365;SDS011;10341;49.894;8.822;2023-06-22T12:03:22;9.32;;;5.60;;
20365;SDS011;10341;49.894;8.822;2023-06-22T12:08:41;6.57;;;5.40;;
20365;SDS011;10341;49.894;8.822;2023-06-22T12:14:01;7.88;;;5.18;;
20365;SDS011;10341;49.894;8.822;2023-06-22T12:19:21;8.07;;;5.45;;
20365;SDS011;10341;49.894;8.822;2023-06-22T12:24:40;8.63;;;5.18;;
20365;SDS011;10341;49.894;8.822;2023-06-22T12:29:59;11.90;;;6.00;;
20365;SDS011;10341;49.894;8.822;2023-06-22T12:35:19;9.32;;;5.82;;
20365;SDS011;10341;49.894;8.822;2023-06-22T12:40:38;8.60;;;5.65;;
20365;SDS011;10341;49.894;8.822;2023-06-22T12:45:57;10.13;;;5.88;;
20365;SDS011;10341;49.894;8.822;2023-06-22T12:51:20;8.68;;;5.88;;
20365;SDS011;10341;49.894;8.822;2023-06-22T12:56:40;8.90;;;5.50;;
20365;SDS011;10341;49.894;8.822;2023-06-22T13:02:02;7.95;;;5.68;;
20365;SDS011;10341;49.894;8.822;2023-06-22T13:07:22;10.85;;;5.75;;
20365;SDS011;10341;49.894;8.822;2023-06-22T13:12:41;7.85;;;5.50;;
20365;SDS011;10341;49.894;8.822;2023-06-22T13:18:00;8.43;;;5.72;;
20365;SDS011;10341;49.894;8.822;2023-06-22T13:23:20;10.85;;;5.80;;
20365;SDS011;10341;49.894;8.822;2023-06-22T13:28:40;9.85;;;5.40;;
20365;SDS011;10341;49.894;8.822;2023-06-22T13:33:59;7.60;;;5.05;;
20365;SDS011;10341;49.894;8.822;2023-06-22T13:39:18;9.02;;;5.32;;
20365;SDS011;10341;49.894;8.822;2023-06-22T13:44:37;7.70;;;5.40;;
20365;SDS011;10341;49.894;8.822;2023-06-22T13:49:57;8.05;;;4.85;;
20365;SDS011;10341;49.894;8.822;2023-06-22T13:55:17;7.70;;;4.40;;
20365;SDS011;10341;49.894;8.822;2023-06-22T14:00:38;7.97;;;4.75;;
20365;SDS011;10341;49.894;8.822;2023-06-22T14:05:57;9.30;;;4.70;;
20365;SDS011;10341;49.894;8.822;2023-06-22T14:11:17;8.60;;;4.07;;
20365;SDS011;10341;49.894;8.822;2023-06-22T14:16:36;9.25;;;3.88;;
20365;SDS011;10341;49.894;8.822;2023-06-22T14:21:56;8.50;;;3.58;;
20365;SDS011;10341;49.894;8.822;2023-06-22T14:27:18;8.98;;;3.75;;
20365;SDS011;10341;49.894;8.822;2023-06-22T14:32:39;9.20;;;3.60;;
20365;SDS011;10341;49.894;8.822;2023-06-22T14:37:58;7.65;;;3.40;;
20365;SDS011;10341;49.894;8.822;2023-06-22T14:43:17;7.55;;;3.17;;
20365;SDS011;10341;49.894;8.822;2023-06-22T14:48:36;8.80;;;3.47;;
20365;SDS011;10341;49.894;8.822;2023-06-22T14:53:55;8.25;;;4.15;;
20365;SDS011;10341;49.894;8.822;2023-06-22T14:59:15;7.53;;;3.38;;
20365;SDS011;10341;49.894;8.822;2023-06-22T15:04:34;8.00;;;3.85;;
20365;SDS011;10341;49.894;8.822;2023-06-22T15:09:53;8.40;;;3.63;;
20365;SDS011;10341;49.894;8.822;2023-06-22T15:15:12;11.15;;;3.50;;
20365;SDS011;10341;49.894;8.822;2023-06-22T15:20:32;7.53;;;3.63;;
20365;SDS011;10341;49.894;8.822;2023-06-22T15:25:51;5.80;;;3.63;;
20365;SDS011;10341;49.894;8.822;2023-06-22T15:31:11;6.90;;;3.70;;
20365;SDS011;10341;49.894;8.822;2023-06-22T15:41:49;9.40;;;3.80;;
20365;SDS011;10341;49.894;8.822;2023-06-22T15:47:09;6.78;;;3.75;;
20365;SDS011;10341;49.894;8.822;2023-06-22T15:52:28;10.77;;;3.75;;
20365;SDS011;10341;49.894;8.822;2023-06-22T16:03:06;7.43;;;3.43;;
20365;SDS011;10341;49.894;8.822;2023-06-22T16:08:27;5.90;;;3.70;;
20365;SDS011;10341;49.894;8.822;2023-06-22T16:13:49;6.10;;;3.63;;
20365;SDS011;10341;49.894;8.822;2023-06-22T16:19:09;7.43;;;3.95;;
20365;SDS011;10341;49.894;8.822;2023-06-22T16:24:28;9.15;;;3.50;;
20365;SDS011;10341;49.894;8.822;2023-06-22T16:29:47;6.32;;;3.58;;
20365;SDS011;10341;49.894;8.822;2023-06-22T16:35:07;8.70;;;4.18;;
20365;SDS011;10341;49.894;8.822;2023-06-22T16:40:26;9.63;;;4.43;;
20365;SDS011;10341;49.894;8.822;2023-06-22T16:45:45;11.27;;;5.15;;
20365;SDS011;10341;49.894;8.822;2023-06-22T16:51:04;8.63;;;4.25;;
20365;SDS011;10341;49.894;8.822;2023-06-22T16:56:25;5.70;;;3.53;;
20365;SDS011;10341;49.894;8.822;2023-06-22T17:01:52;6.05;;;3.80;;
20365;SDS011;10341;49.894;8.822;2023-06-22T17:07:14;6.97;;;3.60;;
20365;SDS011;10341;49.894;8.822;2023-06-22T17:12:35;7.95;;;3.67;;
20365;SDS011;10341;49.894;8.822;2023-06-22T17:17:56;8.75;;;3.88;;
20365;SDS011;10341;49.894;8.822;2023-06-22T17:23:16;6.82;;;3.55;;
20365;SDS011;10341;49.894;8.822;2023-06-22T17:34:12;5.72;;;2.70;;
20365;SDS011;10341;49.894;8.822;2023-06-22T17:39:33;6.15;;;2.97;;
20365;SDS011;10341;49.894;8.822;2023-06-22T17:44:59;5.00;;;2.72;;
20365;SDS011;10341;49.894;8.822;2023-06-22T17:50:22;4.68;;;2.50;;
20365;SDS011;10341;49.894;8.822;2023-06-22T17:55:43;5.72;;;2.40;;
20365;SDS011;10341;49.894;8.822;2023-06-22T18:01:02;5.80;;;2.45;;
20365;SDS011;10341;49.894;8.822;2023-06-22T18:06:22;5.78;;;2.38;;
20365;SDS011;10341;49.894;8.822;2023-06-22T18:11:45;6.05;;;2.20;;
20365;SDS011;10341;49.894;8.822;2023-06-22T18:17:06;5.03;;;2.88;;
20365;SDS011;10341;49.894;8.822;2023-06-22T18:22:27;4.93;;;2.53;;
20365;SDS011;10341;49.894;8.822;2023-06-22T18:27:48;4.95;;;2.28;;
20365;SDS011;10341;49.894;8.822;2023-06-22T18:33:07;5.53;;;2.15;;
20365;SDS011;10341;49.894;8.822;2023-06-22T18:38:27;4.97;;;3.00;;
20365;SDS011;10341;49.894;8.822;2023-06-22T18:43:46;3.20;;;2.28;;
20365;SDS011;10341;49.894;8.822;2023-06-22T18:49:15;6.63;;;2.63;;
20365;SDS011;10341;49.894;8.822;2023-06-22T18:54:39;5.72;;;2.15;;
20365;SDS011;10341;49.894;8.822;2023-06-22T19:00:04;3.97;;;2.47;;
20365;SDS011;10341;49.894;8.822;2023-06-22T19:05:41;6.00;;;2.30;;
20365;SDS011;10341;49.894;8.822;2023-06-22T19:11:10;3.25;;;1.98;;
20365;SDS011;10341;49.894;8.822;2023-06-22T19:16:31;7.05;;;2.60;;
20365;SDS011;10341;49.894;8.822;2023-06-22T19:21:58;3.95;;;2.28;;
20365;SDS011;10341;49.894;8.822;2023-06-22T19:27:20;6.65;;;2.55;;
20365;SDS011;10341;49.894;8.822;2023-06-22T19:32:40;4.80;;;2.15;;
20365;SDS011;10341;49.894;8.822;2023-06-22T19:37:59;4.00;;;2.38;;
20365;SDS011;10341;49.894;8.822;2023-06-22T19:43:19;4.73;;;1.77;;
20365;SDS011;10341;49.894;8.822;2023-06-22T19:48:39;5.65;;;2.28;;
20365;SDS011;10341;49.894;8.822;2023-06-22T19:54:05;4.30;;;1.95;;
20365;SDS011;10341;49.894;8.822;2023-06-22T19:59:26;3.38;;;2.03;;
20365;SDS011;10341;49.894;8.822;2023-06-22T20:04:45;2.53;;;1.70;;
20365;SDS011;10341;49.894;8.822;2023-06-22T20:10:26;4.28;;;2.28;;
20365;SDS011;10341;49.894;8.822;2023-06-22T20:15:47;3.65;;;2.00;;
20365;SDS011;10341;49.894;8.822;2023-06-22T20:21:10;5.35;;;1.83;;
20365;SDS011;10341;49.894;8.822;2023-06-22T20:26:44;2.83;;;1.90;;
20365;SDS011;10341;49.894;8.822;2023-06-22T20:32:08;3.70;;;1.90;;
20365;SDS011;10341;49.894;8.822;2023-06-22T20:37:31;3.83;;;1.33;;
20365;SDS011;10341;49.894;8.822;2023-06-22T20:42:51;1.45;;;1.10;;
20365;SDS011;10341;49.894;8.822;2023-06-22T20:48:12;2.30;;;0.85;;
20365;SDS011;10341;49.894;8.822;2023-06-22T20:53:32;1.10;;;1.00;;
20365;SDS011;10341;49.894;8.822;2023-06-22T20:58:51;3.83;;;1.00;;
20365;SDS011;10341;49.894;8.822;2023-06-22T21:04:10;0.93;;;0.80;;
20365;SDS011;10341;49.894;8.822;2023-06-22T21:09:29;2.80;;;0.90;;
20365;SDS011;10341;49.894;8.822;2023-06-22T21:14:48;1.50;;;1.05;;
20365;SDS011;10341;49.894;8.822;2023-06-22T21:20:08;0.63;;;0.63;;
20365;SDS011;10341;49.894;8.822;2023-06-22T21:25:27;0.68;;;0.68;;
20365;SDS011;10341;49.894;8.822;2023-06-22T21:30:47;0.57;;;0.57;;
20365;SDS011;10341;49.894;8.822;2023-06-22T21:36:06;0.50;;;0.50;;
20365;SDS011;10341;49.894;8.822;2023-06-22T21:41:26;0.90;;;0.50;;
20365;SDS011;10341;49.894;8.822;2023-06-22T21:46:45;1.23;;;0.73;;
20365;SDS011;10341;49.894;8.822;2023-06-22T21:52:05;0.40;;;0.40;;
20365;SDS011;10341;49.894;8.822;2023-06-22T21:57:24;0.50;;;0.50;;
20365;SDS011;10341;49.894;8.822;2023-06-22T22:02:45;0.40;;;0.40;;
20365;SDS011;10341;49.894;8.822;2023-06-22T22:08:04;0.35;;;0.30;;
20365;SDS011;10341;49.894;8.822;2023-06-22T22:13:23;1.20;;;0.60;;
20365;SDS011;10341;49.894;8.822;2023-06-22T22:18:44;1.05;;;0.50;;
20365;SDS011;10341;49.894;8.822;2023-06-22T22:24:05;0.40;;;0.40;;
20365;SDS011;10341;49.894;8.822;2023-06-22T22:29:25;0.35;;;0.35;;
20365;SDS011;10341;49.894;8.822;2023-06-22T22:34:47;0.55;;;0.22;;
20365;SDS011;10341;49.894;8.822;2023-06-22T22:40:07;0.93;;;0.40;;
20365;SDS011;10341;49.894;8.822;2023-06-22T22:45:28;0.80;;;0.52;;
20365;SDS011;10341;49.894;8.822;2023-06-22T22:50:48;0.20;;;0.20;;
20365;SDS011;10341;49.894;8.822;2023-06-22T22:56:07;0.30;;;0.30;;
20365;SDS011;10341;49.894;8.822;2023-06-22T23:01:27;1.40;;;0.20;;
20365;SDS011;10341;49.894;8.822;2023-06-22T23:06:45;0.15;;;0.15;;
20365;SDS011;10341;49.894;8.822;2023-06-22T23:12:05;0.20;;;0.20;;
20365;SDS011;10341;49.894;8.822;2023-06-22T23:17:24;0.20;;;0.20;;
20365;SDS011;10341;49.894;8.822;2023-06-22T23:22:43;0.88;;;0.60;;
20365;SDS011;10341;49.894;8.822;2023-06-22T23:28:02;1.30;;;0.90;;
20365;SDS011;10341;49.894;8.822;2023-06-22T23:33:21;2.08;;;1.05;;
20365;SDS011;10341;49.894;8.822;2023-06-22T23:38:43;1.42;;;1.17;;
20365;SDS011;10341;49.894;8.822;2023-06-22T23:44:03;3.00;;;1.58;;
20365;SDS011;10341;49.894;8.822;2023-06-22T23:49:22;3.10;;;2.00;;
20365;SDS011;10341;49.894;8.822;2023-06-22T23:54:42;2.65;;;2.10;;
